»·PEaware :: UAL1800 KLAS-KSFO

UAL1800 :: KLAS-KSFO

FLIGHT INFORMATION

Flight Status: Arrived
Operator:
United Airlines
More flights by this operator :: More flights under this callsign
Pilot: Saso K. (7898)
Aircraft: BOEING 757-200
(B752)
More flights by this aircraft type
Origin: KLAS McCarran Intl
United States
Destination: KSFO San Francisco Intl
United States
More flights between these airports :: More routes between these airports
Route: SHEAD9 KENNO RUSME DYAMD3
File this flight plan on PilotEdge
Remarks:
Altitude:
(Current/Filed)
38,000ft
Speed:
(Current/Filed)
432kts
Departed: 19-Mar-17 02:54 PM
Arrived: 19-Mar-17 04:07 PM
Distance/Time
Traveled:
360nm/1:12
Distance/Time
To Go:
Arrived

Flight Plot

Page will automatically refresh every two minutes.


Map Options




Map Legend


Flown Route
Filed Route
Departure Airport
Arrival Airport
Navaid (VOR, NDB)
Fix

Horizontal Profiles

Position Reports

Time Latitude Longitude Heading Altitude Ground
Speed
19-Mar-17 14:15 36.082978 -115.138711 226 2068ft 0kts
19-Mar-17 14:16 36.082978 -115.138711 226 2068ft 0kts
19-Mar-17 14:17 36.082978 -115.138711 226 2068ft 0kts
19-Mar-17 14:18 36.082978 -115.138711 226 2068ft 0kts
19-Mar-17 14:19 36.082978 -115.138711 226 2068ft 0kts
19-Mar-17 14:20 36.082978 -115.138711 226 2068ft 0kts
19-Mar-17 14:21 36.082978 -115.138711 226 2068ft 0kts
19-Mar-17 14:22 36.082978 -115.138711 226 2068ft 0kts
19-Mar-17 14:23 36.082978 -115.138711 226 2067ft 0kts
19-Mar-17 14:24 36.082978 -115.138711 226 2067ft 0kts
19-Mar-17 14:25 36.082978 -115.138711 226 2067ft 0kts
19-Mar-17 14:26 36.082978 -115.138711 226 2067ft 0kts
19-Mar-17 14:27 36.082978 -115.138711 226 2067ft 0kts
19-Mar-17 14:28 36.082978 -115.138711 226 2067ft 0kts
19-Mar-17 14:29 36.082978 -115.138711 226 2067ft 0kts
19-Mar-17 14:30 36.082978 -115.138711 226 2067ft 0kts
19-Mar-17 14:31 36.082978 -115.138711 226 2067ft 0kts
19-Mar-17 14:32 36.082978 -115.138711 226 2067ft 0kts
19-Mar-17 14:33 36.082978 -115.138711 226 2067ft 0kts
19-Mar-17 14:34 36.082978 -115.138711 226 2067ft 0kts
19-Mar-17 14:35 36.082978 -115.138711 226 2067ft 0kts
19-Mar-17 14:36 36.082978 -115.138711 226 2067ft 0kts
19-Mar-17 14:37 36.082978 -115.138711 226 2067ft 0kts
19-Mar-17 14:38 36.082978 -115.138711 226 2067ft 0kts
19-Mar-17 14:39 36.082978 -115.138711 226 2067ft 0kts
19-Mar-17 14:40 36.082978 -115.138711 226 2067ft 0kts
19-Mar-17 14:41 36.083082 -115.138574 226 2067ft 0kts
19-Mar-17 14:42 36.083759 -115.138101 187 2064ft 0kts
19-Mar-17 14:43 36.084543 -115.138057 163 2062ft 0kts
19-Mar-17 14:44 36.084543 -115.138057 163 2062ft 0kts
19-Mar-17 14:45 36.084543 -115.138057 163 2062ft 0kts
19-Mar-17 14:46 36.084543 -115.138057 163 2062ft 0kts
19-Mar-17 14:47 36.084542 -115.138056 163 2062ft 0kts
19-Mar-17 14:48 36.084123 -115.135184 106 2055ft 19kts
19-Mar-17 14:49 36.082171 -115.132978 173 2054ft 10kts
19-Mar-17 14:50 36.079837 -115.132969 179 2058ft 10kts
19-Mar-17 14:51 36.078252 -115.132450 96 2060ft 13kts
19-Mar-17 14:52 36.078261 -115.124885 88 2042ft 24kts
19-Mar-17 14:53 36.077322 -115.121437 151 2041ft 5kts
19-Mar-17 14:54 36.076402 -115.123031 269 2042ft 29kts
19-Mar-17 14:55 36.076574 -115.170828 269 2984ft 206kts
19-Mar-17 14:56 36.070815 -115.244950 235 5482ft 257kts
19-Mar-17 14:57 36.010608 -115.282223 201 7038ft 253kts
19-Mar-17 14:58 35.950537 -115.325172 223 8967ft 261kts
19-Mar-17 14:59 35.900159 -115.385799 224 9047ft 255kts
19-Mar-17 15:00 35.886477 -115.467453 266 11096ft 313kts
19-Mar-17 15:01 35.887967 -115.577351 267 11054ft 322kts
19-Mar-17 15:02 35.889791 -115.666047 266 11483ft 333kts
19-Mar-17 15:03 35.890543 -115.706841 266 13123ft 330kts
19-Mar-17 15:04 35.892421 -115.819634 266 16513ft 344kts
19-Mar-17 15:05 35.895295 -115.939276 275 19537ft 362kts
19-Mar-17 15:06 35.956907 -116.042205 312 22190ft 398kts
19-Mar-17 15:07 36.038914 -116.136058 311 24589ft 411kts
19-Mar-17 15:08 36.122982 -116.233054 311 26714ft 423kts
19-Mar-17 15:09 36.208771 -116.333829 311 28611ft 433kts
19-Mar-17 15:10 36.298033 -116.436508 312 30336ft 444kts
19-Mar-17 15:11 36.388692 -116.541804 311 32024ft 450kts
19-Mar-17 15:12 36.477911 -116.646087 311 34058ft 443kts
19-Mar-17 15:13 36.562347 -116.743765 317 35813ft 441kts
19-Mar-17 15:14 36.666143 -116.825125 323 37327ft 445kts
19-Mar-17 15:15 36.770223 -116.904444 323 38118ft 444kts
19-Mar-17 15:16 36.873670 -116.983362 322 38153ft 446kts
19-Mar-17 15:17 36.976996 -117.062467 321 38204ft 447kts
19-Mar-17 15:18 37.082968 -117.143924 320 38204ft 448kts
19-Mar-17 15:19 37.188191 -117.225052 320 38195ft 447kts
19-Mar-17 15:20 37.293585 -117.306800 318 38194ft 445kts
19-Mar-17 15:21 37.386383 -117.405472 311 38181ft 437kts
19-Mar-17 15:22 37.471906 -117.510947 293 38154ft 420kts
19-Mar-17 15:23 37.501493 -117.645470 272 38127ft 398kts
19-Mar-17 15:24 37.508599 -117.715667 270 38128ft 396kts
19-Mar-17 15:25 37.519359 -117.852933 270 38105ft 396kts
19-Mar-17 15:26 37.530638 -117.990677 269 38100ft 396kts
19-Mar-17 15:27 37.540792 -118.128813 269 38099ft 395kts
19-Mar-17 15:28 37.551313 -118.266126 269 38099ft 396kts
19-Mar-17 15:29 37.562774 -118.404040 270 38127ft 397kts
19-Mar-17 15:30 37.573805 -118.540129 270 38197ft 396kts
19-Mar-17 15:31 37.583643 -118.672824 268 38239ft 395kts
19-Mar-17 15:32 37.592982 -118.810127 269 38249ft 395kts
19-Mar-17 15:33 37.601735 -118.947188 268 38249ft 394kts
19-Mar-17 15:34 37.609225 -119.084741 269 38247ft 394kts
19-Mar-17 15:35 37.618248 -119.221279 269 38246ft 394kts
19-Mar-17 15:36 37.627486 -119.358529 269 38244ft 394kts
19-Mar-17 15:37 37.636659 -119.495654 269 38244ft 394kts
19-Mar-17 15:38 37.645710 -119.633127 269 38185ft 393kts
19-Mar-17 15:39 37.650738 -119.710539 268 38147ft 393kts
19-Mar-17 15:40 37.659121 -119.841206 268 36690ft 386kts
19-Mar-17 15:41 37.667380 -119.972393 268 34804ft 378kts
19-Mar-17 15:42 37.675218 -120.099480 268 32963ft 384kts
19-Mar-17 15:43 37.683060 -120.228491 268 31052ft 390kts
19-Mar-17 15:44 37.690783 -120.357653 268 29149ft 382kts
19-Mar-17 15:45 37.683541 -120.480085 256 27364ft 368kts
19-Mar-17 15:46 37.669193 -120.605502 256 25546ft 362kts
19-Mar-17 15:47 37.657250 -120.706981 255 24089ft 373kts
19-Mar-17 15:48 37.645548 -120.805139 255 22465ft 373kts
19-Mar-17 15:49 37.632278 -120.931266 252 22209ft 360kts
19-Mar-17 15:50 37.614376 -121.054240 255 20625ft 355kts
19-Mar-17 15:51 37.598073 -121.174877 255 19033ft 347kts
19-Mar-17 15:52 37.582890 -121.293280 260 16909ft 340kts
19-Mar-17 15:53 37.574191 -121.409795 258 14740ft 332kts
19-Mar-17 15:54 37.561642 -121.522839 258 12626ft 324kts
19-Mar-17 15:55 37.548618 -121.629323 252 11760ft 287kts
19-Mar-17 15:56 37.526850 -121.720401 251 10190ft 275kts
19-Mar-17 15:57 37.505772 -121.808421 252 8796ft 259kts
19-Mar-17 15:58 37.490994 -121.887495 272 7889ft 243kts
19-Mar-17 15:59 37.495122 -121.963873 273 7109ft 220kts
19-Mar-17 16:00 37.499283 -122.037543 274 5759ft 216kts
19-Mar-17 16:01 37.509428 -122.108263 297 4441ft 212kts
19-Mar-17 16:02 37.534769 -122.169568 297 3318ft 192kts
19-Mar-17 16:03 37.556119 -122.220428 297 2438ft 156kts
19-Mar-17 16:04 37.575447 -122.266374 297 1623ft 133kts
19-Mar-17 16:05 37.591641 -122.304893 298 940ft 125kts
19-Mar-17 16:06 37.607376 -122.342706 298 304ft 122kts
19-Mar-17 16:07 37.620183 -122.372997 297 18ft 54kts
19-Mar-17 16:08 37.622290 -122.381485 267 33ft 11kts
19-Mar-17 16:09 37.621674 -122.386634 263 34ft 10kts
19-Mar-17 16:10 37.622316 -122.390768 246 33ft 12kts
19-Mar-17 16:11 37.621135 -122.390787 118 34ft 3kts
19-Mar-17 16:12 37.621101 -122.390707 119 34ft 0kts
19-Mar-17 16:13 37.621101 -122.390707 119 34ft 0kts

Navigation Log

Ident Type
Flight plan parsing failed, navigation log unavailable